Time;durP1;ratioP1;P1;durP2;ratioP2;P2;SDS_P1;SDS_P2;PMS_P1;PMS_P2;Temp;Humidity;BMP_temperature;BMP_pressure;BME280_temperature;BME280_humidity;BME280_pressure;Samples;Min_cycle;Max_cycle;Signal;HPM_P1;HPM_P2
2020/12/28 00:00:18;;;;;;;2.83;2.30;;;;;;;-3.19;91.05;101124.27;1697427;83;21371;-73
2020/12/28 00:02:46;;;;;;;3.83;2.73;;;;;;;-3.17;91.06;101125.55;1697375;84;21138;-73
2020/12/28 00:05:13;;;;;;;3.60;2.90;;;;;;;-3.19;91.07;101118.13;1697198;84;21626;-73
2020/12/28 00:07:42;;;;;;;6.03;3.10;;;;;;;-3.18;91.10;101124.69;1697635;84;21145;-73
2020/12/28 00:10:11;;;;;;;2.00;1.53;;;;;;;-3.17;91.13;101119.81;1697564;84;21123;-72
2020/12/28 00:12:46;;;;;;;3.30;2.30;;;;;;;-3.18;91.14;101124.69;1697801;84;21364;-73
2020/12/28 00:15:17;;;;;;;2.60;2.13;;;;;;;-3.16;91.16;101125.49;1697466;84;21032;-73
2020/12/28 00:17:50;;;;;;;2.73;2.13;;;;;;;-3.16;91.12;101116.70;1697842;84;21070;-73
2020/12/28 00:20:19;;;;;;;3.62;2.52;;;;;;;-3.17;91.13;101122.47;1693999;83;21032;-74
2020/12/28 00:22:47;;;;;;;4.73;2.27;;;;;;;-3.17;91.13;101114.52;1692409;84;21024;-74
2020/12/28 00:25:24;;;;;;;2.37;1.67;;;;;;;-3.18;91.09;101104.00;1692369;84;21812;-73
2020/12/28 00:27:53;;;;;;;2.93;2.67;;;;;;;-3.19;91.02;101100.47;1691945;84;21098;-73
2020/12/28 00:30:21;;;;;;;2.77;2.37;;;;;;;-3.18;90.96;101106.64;1692364;84;21064;-74
2020/12/28 00:32:49;;;;;;;2.37;1.83;;;;;;;-3.19;90.87;101106.22;1734591;82;20991;-73
2020/12/28 00:35:17;;;;;;;3.30;2.83;;;;;;;-3.21;90.76;101103.63;1760208;81;20954;-73
2020/12/28 00:37:45;;;;;;;3.50;2.17;;;;;;;-3.21;90.62;101091.73;1734871;81;21458;-73
2020/12/28 00:40:13;;;;;;;2.47;2.20;;;;;;;-3.21;90.52;101085.11;1760068;81;21049;-72
2020/12/28 00:42:41;;;;;;;4.00;1.77;;;;;;;-3.22;90.40;101090.02;1760805;81;20926;-72
2020/12/28 00:45:09;;;;;;;2.17;2.03;;;;;;;-3.24;90.29;101089.19;1760547;81;20989;-73
2020/12/28 00:47:37;;;;;;;3.60;2.23;;;;;;;-3.25;90.15;101091.45;1760420;81;21044;-73
2020/12/28 00:50:06;;;;;;;9.13;2.23;;;;;;;-3.25;90.05;101090.13;1760188;81;21216;-73
2020/12/28 00:52:34;;;;;;;4.50;2.70;;;;;;;-3.24;89.97;101082.58;1760513;81;21017;-73
2020/12/28 00:55:05;;;;;;;2.73;1.93;;;;;;;-3.24;89.91;101081.25;1760343;81;21005;-72
2020/12/28 00:57:35;;;;;;;2.90;2.17;;;;;;;-3.24;89.79;101078.61;1735349;81;21550;-73
2020/12/28 01:00:05;;;;;;;2.20;2.00;;;;;;;-3.25;89.69;101063.67;1759814;81;21044;-74
2020/12/28 01:02:39;;;;;;;2.07;1.90;;;;;;;-3.27;89.59;101067.70;1743355;82;20926;-72
2020/12/28 01:05:09;;;;;;;5.10;2.07;;;;;;;-3.28;89.52;101071.72;1758929;81;21002;-73
2020/12/28 01:07:38;;;;;;;2.80;2.07;;;;;;;-3.28;89.46;101085.80;1746753;82;21032;-74
2020/12/28 01:10:28;;;;;;;3.60;2.33;;;;;;;-3.25;89.37;101076.90;1852699;76;24984;-73
2020/12/28 01:12:58;;;;;;;3.23;2.20;;;;;;;-3.32;89.31;101076.73;1855747;77;21526;-73
2020/12/28 01:15:26;;;;;;;4.10;2.50;;;;;;;-3.33;89.25;101075.88;1855536;77;21232;-73
2020/12/28 01:17:54;;;;;;;2.27;1.87;;;;;;;-3.33;89.23;101069.70;1855994;77;20985;-73
2020/12/28 01:20:24;;;;;;;2.23;1.43;;;;;;;-3.34;89.17;101066.67;1851277;77;20965;-73
2020/12/28 01:22:53;;;;;;;1.23;1.20;;;;;;;-3.35;89.11;101059.17;1822794;77;20922;-73
2020/12/28 01:25:21;;;;;;;2.93;2.63;;;;;;;-3.35;89.05;101051.70;1822933;77;20973;-74
2020/12/28 01:27:54;;;;;;;4.83;2.27;;;;;;;-3.38;89.00;101045.20;1721619;83;22422;-73
2020/12/28 01:30:30;;;;;;;9.65;3.72;;;;;;;-3.34;88.99;101034.93;1829715;76;38112;-73
2020/12/28 01:33:01;;;;;;;9.83;3.47;;;;;;;-3.37;88.95;101043.83;1812158;79;21004;-73
2020/12/28 01:35:32;;;;;;;3.73;2.50;;;;;;;-3.33;88.84;101039.28;1699849;82;21191;-74
2020/12/28 01:38:01;;;;;;;2.33;1.77;;;;;;;-3.34;88.74;101035.78;1699172;84;21008;-73
2020/12/28 01:40:32;;;;;;;1.70;1.60;;;;;;;-3.33;88.65;101028.70;1699787;84;20956;-73
2020/12/28 01:43:10;;;;;;;5.13;1.87;;;;;;;-3.31;88.55;101033.03;1845832;76;25924;-73
2020/12/28 01:45:38;;;;;;;2.43;2.20;;;;;;;-3.36;88.46;101028.38;1816215;77;20889;-73
2020/12/28 01:48:11;;;;;;;3.35;2.30;;;;;;;-3.37;88.38;101020.02;1816219;79;22345;-73
2020/12/28 01:50:39;;;;;;;2.57;2.37;;;;;;;-3.37;88.33;101017.84;1815677;79;20940;-73
2020/12/28 01:53:07;;;;;;;1.67;1.57;;;;;;;-3.37;88.26;101007.27;1815963;78;21094;-72
2020/12/28 01:55:36;;;;;;;2.70;2.43;;;;;;;-3.38;88.19;101002.88;1784256;79;20980;-73
2020/12/28 01:58:06;;;;;;;6.40;2.53;;;;;;;-3.39;88.15;101009.97;1815736;79;21011;-74
2020/12/28 02:00:34;;;;;;;4.00;2.60;;;;;;;-3.38;88.13;101008.17;1815380;78;21862;-73
2020/12/28 02:03:07;;;;;;;3.03;2.73;;;;;;;-3.40;88.06;101015.31;1782673;79;21046;-73
2020/12/28 02:05:37;;;;;;;6.15;3.37;;;;;;;-3.41;88.02;101019.75;1743536;82;21540;-74
2020/12/28 02:08:05;;;;;;;3.37;2.07;;;;;;;-3.41;87.99;101022.86;1740631;81;20993;-74
2020/12/28 02:10:34;;;;;;;2.53;1.80;;;;;;;-3.44;87.96;101018.06;1770095;81;21574;-73
2020/12/28 02:13:03;;;;;;;2.90;2.13;;;;;;;-3.45;87.93;101011.06;1747713;82;21397;-73
2020/12/28 02:15:33;;;;;;;2.17;1.97;;;;;;;-3.44;87.91;101001.34;1739903;81;21622;-74
2020/12/28 02:18:26;;;;;;;4.47;2.20;;;;;;;-3.42;87.91;100988.92;1846130;76;24001;-73
2020/12/28 02:21:02;;;;;;;2.77;2.13;;;;;;;-3.47;87.84;100982.94;1811213;79;21446;-73
2020/12/28 02:23:30;;;;;;;4.47;3.13;;;;;;;-3.47;87.84;100978.97;1815854;79;22133;-72
2020/12/28 02:25:58;;;;;;;1.60;1.50;;;;;;;-3.49;87.79;100983.47;1815906;79;21051;-72
2020/12/28 02:28:28;;;;;;;4.07;2.83;;;;;;;-3.51;87.77;100966.80;1815961;79;21075;-73
2020/12/28 02:30:56;;;;;;;2.30;2.10;;;;;;;-3.51;87.73;100968.98;1815828;79;20927;-73
2020/12/28 02:33:34;;;;;;;2.30;2.07;;;;;;;-3.51;87.73;100973.41;1811012;79;21544;-74
2020/12/28 02:36:09;;;;;;;2.33;1.70;;;;;;;-3.51;87.70;100957.55;1811345;79;21434;-73
2020/12/28 02:38:37;;;;;;;2.43;2.23;;;;;;;-3.53;87.70;100954.95;1815726;79;20984;-72
2020/12/28 02:41:05;;;;;;;2.37;2.20;;;;;;;-3.52;87.70;100957.16;1815834;79;20987;-73
2020/12/28 02:43:35;;;;;;;5.53;2.70;;;;;;;-3.54;87.66;100962.50;1811095;77;20929;-73
2020/12/28 02:46:21;;;;;;;3.10;2.13;;;;;;;-3.52;87.65;100955.84;1836690;77;21009;-72
2020/12/28 02:48:56;;;;;;;5.87;2.50;;;;;;;-3.55;87.61;100961.23;1817617;77;21218;-72
2020/12/28 02:51:43;;;;;;;13.60;5.93;;;;;;;-3.57;87.57;100961.77;1802875;79;21003;-74
2020/12/28 02:54:29;;;;;;;17.00;7.10;;;;;;;-3.57;87.56;100968.38;1802769;78;21018;-73
2020/12/28 02:57:16;;;;;;;9.83;5.83;;;;;;;-3.60;87.55;100958.75;1802569;79;21054;-73
2020/12/28 03:00:04;;;;;;;12.87;7.33;;;;;;;-3.61;87.54;100957.05;1802477;79;21046;-73
2020/12/28 03:03:00;;;;;;;7.93;5.03;;;;;;;-3.58;87.54;100945.48;1845802;76;23070;-74
2020/12/28 03:05:46;;;;;;;7.77;2.93;;;;;;;-3.65;87.53;100939.13;1815944;79;20885;-73
2020/12/28 03:08:32;;;;;;;3.77;3.10;;;;;;;-3.65;87.53;100942.20;1816069;79;22250;-73
2020/12/28 03:11:18;;;;;;;4.90;3.77;;;;;;;-3.65;87.56;100944.84;1815664;77;21007;-74
2020/12/28 03:14:06;;;;;;;1.50;1.40;;;;;;;-3.64;87.57;100947.44;1815826;79;20901;-73
2020/12/28 03:16:52;;;;;;;2.97;2.43;;;;;;;-3.65;87.56;100955.42;1815709;79;21126;-72
2020/12/28 03:19:22;;;;;;;2.83;2.60;;;;;;;-3.64;87.57;100955.84;1699729;82;21119;-75
2020/12/28 03:22:08;;;;;;;1.97;1.80;;;;;;;-3.63;87.58;100957.55;1699456;83;22498;-73
2020/12/28 03:24:55;;;;;;;1.87;1.77;;;;;;;-3.62;87.60;100959.28;1699404;84;21051;-73
2020/12/28 03:27:41;;;;;;;2.23;2.13;;;;;;;-3.60;87.59;100952.61;1699286;84;21015;-74
2020/12/28 03:30:29;;;;;;;4.17;2.30;;;;;;;-3.53;87.60;100939.56;1845158;76;24994;-73
2020/12/28 03:33:16;;;;;;;4.03;2.53;;;;;;;-3.57;87.59;100953.36;1815611;79;20980;-73
2020/12/28 03:36:02;;;;;;;4.13;2.47;;;;;;;-3.56;87.55;100957.73;1815573;79;21029;-74
2020/12/28 03:38:49;;;;;;;2.37;2.00;;;;;;;-3.55;87.56;100952.84;1815468;79;20948;-73
2020/12/28 03:41:35;;;;;;;4.83;2.40;;;;;;;-3.51;87.57;100949.61;1815771;79;21550;-73
2020/12/28 03:44:23;;;;;;;3.40;2.23;;;;;;;-3.49;87.61;100938.52;1815563;79;20996;-74
2020/12/28 03:47:09;;;;;;;2.97;2.47;;;;;;;-3.47;87.61;100932.27;1815590;79;21538;-73
2020/12/28 03:49:55;;;;;;;1.97;1.83;;;;;;;-3.42;87.65;100933.85;1815661;78;21786;-73
2020/12/28 03:52:41;;;;;;;2.00;1.80;;;;;;;-3.39;87.64;100932.42;1815550;77;21048;-74
2020/12/28 03:55:27;;;;;;;3.20;2.87;;;;;;;-3.35;87.63;100943.27;1815481;79;21000;-73
2020/12/28 03:58:15;;;;;;;3.00;2.17;;;;;;;-3.33;87.60;100928.20;1815622;79;20949;-73
2020/12/28 04:01:01;;;;;;;2.03;1.93;;;;;;;-3.29;87.59;100935.11;1802533;78;20989;-73
2020/12/28 04:03:42;;;;;;;1.97;1.87;;;;;;;-3.19;87.60;100934.27;1845589;76;22841;-73
2020/12/28 04:06:27;;;;;;;3.03;2.13;;;;;;;-3.20;87.59;100934.73;1699670;84;21048;-72
2020/12/28 04:09:05;;;;;;;2.60;2.03;;;;;;;-3.12;87.54;100936.59;1807223;77;23923;-73
2020/12/28 04:11:51;;;;;;;2.93;2.63;;;;;;;-3.13;87.45;100946.80;1816283;79;21024;-73
2020/12/28 04:14:22;;;;;;;4.17;2.87;;;;;;;-3.09;87.38;100947.06;1812490;79;21164;-72
2020/12/28 04:16:50;;;;;;;4.10;2.37;;;;;;;-3.07;87.35;100947.86;1816673;79;21001;-72
2020/12/28 04:19:18;;;;;;;3.37;2.53;;;;;;;-3.02;87.28;100938.89;1816830;79;21595;-73
2020/12/28 04:21:46;;;;;;;2.60;2.20;;;;;;;-3.01;87.19;100942.80;1816632;79;21028;-73
2020/12/28 04:24:15;;;;;;;3.27;2.33;;;;;;;-2.99;87.08;100947.56;1816607;79;20946;-74
2020/12/28 04:26:43;;;;;;;5.70;1.80;;;;;;;-2.97;86.97;100944.86;1816748;79;21041;-75
2020/12/28 04:29:12;;;;;;;5.30;2.90;;;;;;;-2.95;86.91;100949.63;1816780;79;21059;-73
2020/12/28 04:31:41;;;;;;;1.80;1.53;;;;;;;-2.93;86.88;100951.75;1816445;78;20942;-74
2020/12/28 04:34:09;;;;;;;2.60;2.30;;;;;;;-2.90;86.81;100944.54;1816395;79;21044;-74
2020/12/28 04:36:37;;;;;;;2.53;2.23;;;;;;;-2.88;86.76;100945.33;1816258;78;21032;-72
2020/12/28 04:39:05;;;;;;;3.57;2.47;;;;;;;-2.87;86.73;100931.19;1816419;78;21899;-73
2020/12/28 04:41:33;;;;;;;2.03;1.70;;;;;;;-2.84;86.61;100940.77;1816641;78;21060;-73
2020/12/28 04:44:01;;;;;;;6.53;3.30;;;;;;;-2.84;86.54;100935.48;1816898;79;21531;-73
2020/12/28 04:46:31;;;;;;;3.00;2.27;;;;;;;-2.83;86.50;100927.95;1808405;79;21147;-74
2020/12/28 04:48:58;;;;;;;3.37;2.20;;;;;;;-2.80;86.40;100931.77;1800708;79;21005;-73
2020/12/28 04:51:27;;;;;;;3.37;2.13;;;;;;;-2.79;86.31;100938.80;1800879;79;21206;-74
2020/12/28 04:53:56;;;;;;;2.23;2.00;;;;;;;-2.77;86.28;100934.77;1800725;79;21028;-73
2020/12/28 04:56:24;;;;;;;3.20;1.43;;;;;;;-2.76;86.23;100936.47;1800492;79;21041;-74
2020/12/28 04:58:54;;;;;;;3.00;2.23;;;;;;;-2.74;86.16;100934.17;1800481;79;20886;-73
2020/12/28 05:01:22;;;;;;;2.87;2.03;;;;;;;-2.74;86.02;100922.73;1791539;78;21036;-73
2020/12/28 05:03:50;;;;;;;4.27;2.97;;;;;;;-2.75;85.87;100916.56;1784043;79;22394;-73
2020/12/28 05:06:18;;;;;;;3.13;1.73;;;;;;;-2.74;85.83;100913.47;1784135;80;21041;-73
2020/12/28 05:08:47;;;;;;;3.17;1.63;;;;;;;-2.73;85.74;100916.50;1784049;80;21605;-73
2020/12/28 05:11:15;;;;;;;3.73;1.60;;;;;;;-2.72;85.67;100922.20;1784081;80;21511;-73
2020/12/28 05:13:52;;;;;;;1.77;1.37;;;;;;;-2.70;85.62;100929.61;1784166;79;20985;-73
2020/12/28 05:16:21;;;;;;;5.40;2.40;;;;;;;-2.69;85.50;100917.64;1784101;80;21372;-73
2020/12/28 05:18:52;;;;;;;2.30;1.87;;;;;;;-2.67;85.42;100915.78;1783902;80;21020;-72
2020/12/28 05:21:25;;;;;;;2.13;1.57;;;;;;;-2.67;85.18;100906.52;1783965;80;21455;-72
2020/12/28 05:23:55;;;;;;;2.87;1.40;;;;;;;-2.63;85.04;100907.25;1783887;79;20961;-73
2020/12/28 05:26:22;;;;;;;2.07;1.87;;;;;;;-2.62;84.92;100914.72;1783615;80;21122;-72
2020/12/28 05:28:55;;;;;;;2.93;2.40;;;;;;;-2.61;84.78;100921.27;1783625;80;21293;-72
2020/12/28 05:31:23;;;;;;;;;;;;;;;-2.59;84.67;100918.56;1786334;80;20954;-73
2020/12/28 05:33:53;;;;;;;4.47;2.60;;;;;;;-2.58;84.56;100917.65;1783736;80;20135;-72
2020/12/28 05:36:20;;;;;;;2.83;1.93;;;;;;;-2.58;84.50;100919.83;1739239;80;20985;-72
2020/12/28 05:38:50;;;;;;;1.90;1.40;;;;;;;-2.57;84.44;100924.65;1738533;80;21129;-73
2020/12/28 05:41:28;;;;;;;1.90;1.80;;;;;;;-2.56;84.38;100921.09;1753078;80;21202;-73
2020/12/28 05:43:56;;;;;;;2.57;1.73;;;;;;;-2.55;84.30;100918.37;1778372;80;20957;-72
2020/12/28 05:46:24;;;;;;;9.73;2.13;;;;;;;-2.52;84.20;100924.84;1776403;80;21550;-74
2020/12/28 05:48:55;;;;;;;4.10;2.03;;;;;;;-2.50;84.11;100923.46;1768021;81;21530;-73
2020/12/28 05:51:23;;;;;;;2.80;2.00;;;;;;;-2.49;83.94;100914.60;1767358;81;21502;-73
2020/12/28 05:53:53;;;;;;;4.00;2.00;;;;;;;-2.47;83.84;100912.74;1766962;81;22670;-74
2020/12/28 05:56:24;;;;;;;2.03;1.83;;;;;;;-2.47;83.72;100899.50;1767011;81;20956;-73
2020/12/28 05:58:52;;;;;;;3.33;2.00;;;;;;;-2.46;83.58;100899.02;1766979;81;21008;-76
2020/12/28 06:01:20;;;;;;;1.83;1.57;;;;;;;-2.46;83.52;100913.16;1775309;79;21032;-66
2020/12/28 06:03:48;;;;;;;2.30;2.00;;;;;;;-2.39;83.58;100910.63;1785055;79;21518;-75
2020/12/28 06:06:17;;;;;;;6.73;3.00;;;;;;;-2.34;83.50;100919.24;1799191;79;21443;-75
2020/12/28 06:08:45;;;;;;;3.90;3.00;;;;;;;-2.30;83.41;100915.52;1778581;79;21201;-74
2020/12/28 06:11:13;;;;;;;2.47;1.93;;;;;;;-2.26;83.17;100916.25;1802980;79;20983;-74
2020/12/28 06:13:43;;;;;;;6.50;2.47;;;;;;;-2.25;82.89;100920.59;1800707;79;20988;-73
2020/12/28 06:16:12;;;;;;;3.37;1.97;;;;;;;-2.22;82.71;100922.27;1766408;80;21125;-74
2020/12/28 06:18:39;;;;;;;2.37;1.80;;;;;;;-2.19;82.39;100928.77;1712633;81;21222;-74
2020/12/28 06:21:14;;;;;;;5.53;2.53;;;;;;;-2.19;82.17;100926.12;1771840;80;20944;-73
2020/12/28 06:23:50;;;;;;;1.33;1.20;;;;;;;-2.17;82.04;100922.92;1738106;81;21057;-72
2020/12/28 06:26:19;;;;;;;2.33;1.70;;;;;;;-2.14;81.71;100922.80;1774137;80;21020;-73
2020/12/28 06:28:47;;;;;;;2.83;2.30;;;;;;;-2.14;81.59;100918.35;1746844;81;21014;-69
2020/12/28 06:31:15;;;;;;;6.13;2.27;;;;;;;-2.13;81.44;100920.53;1788540;78;21486;-69
2020/12/28 06:33:49;;;;;;;2.33;2.03;;;;;;;-2.11;81.24;100922.64;1743807;81;21016;-69
2020/12/28 06:36:17;;;;;;;1.90;1.80;;;;;;;-2.08;81.15;100921.19;1774624;80;21566;-68
2020/12/28 06:38:59;;;;;;;3.37;2.03;;;;;;;-2.07;81.00;100916.73;1741935;81;21104;-69
2020/12/28 06:41:30;;;;;;;4.67;1.87;;;;;;;-2.02;80.94;100914.74;1783863;80;20981;-69
2020/12/28 06:44:00;;;;;;;4.13;1.80;;;;;;;-2.00;80.68;100911.55;1739776;81;22683;-70
2020/12/28 06:46:29;;;;;;;3.20;1.67;;;;;;;-1.98;80.56;100915.88;1767610;80;21052;-70
2020/12/28 06:48:58;;;;;;;2.80;2.30;;;;;;;-1.94;80.57;100911.30;1732988;81;21641;-69
2020/12/28 06:51:27;;;;;;;3.77;2.53;;;;;;;-1.88;80.44;100912.33;1753038;79;20941;-67
2020/12/28 06:53:56;;;;;;;2.87;2.23;;;;;;;-1.84;80.34;100919.23;1735624;81;20950;-69
2020/12/28 06:56:27;;;;;;;3.10;2.63;;;;;;;-1.80;80.22;100920.80;1757774;80;21195;-71
2020/12/28 06:58:58;;;;;;;2.80;1.43;;;;;;;-1.77;79.99;100912.71;1723647;83;21633;-72
2020/12/28 07:01:27;;;;;;;3.43;1.50;;;;;;;-1.72;79.78;100912.48;1685298;83;21034;-70
2020/12/28 07:03:55;;;;;;;3.83;2.30;;;;;;;-1.68;79.69;100908.78;1697138;84;21477;-71
2020/12/28 07:06:23;;;;;;;7.90;3.03;;;;;;;-1.65;79.60;100900.66;1705516;83;21041;-70
2020/12/28 07:08:53;;;;;;;3.00;2.03;;;;;;;-1.60;79.35;100892.49;1715494;82;21102;-70
2020/12/28 07:11:21;;;;;;;2.17;1.77;;;;;;;-1.58;79.02;100895.93;1719250;83;21593;-71
2020/12/28 07:13:49;;;;;;;5.63;3.30;;;;;;;-1.58;78.78;100885.31;1721215;83;21039;-70
2020/12/28 07:16:17;;;;;;;10.53;4.10;;;;;;;-1.57;78.61;100884.40;1718200;83;21028;-70
2020/12/28 07:18:44;;;;;;;3.73;2.23;;;;;;;-1.55;78.62;100886.03;1683525;83;21102;-71
2020/12/28 07:21:14;;;;;;;4.90;2.37;;;;;;;-1.52;78.59;100879.73;1690074;83;21820;-70
2020/12/28 07:23:42;;;;;;;5.83;2.80;;;;;;;-1.49;78.49;100885.34;1716240;82;21183;-71
2020/12/28 07:26:11;;;;;;;2.53;2.30;;;;;;;-1.48;78.31;100884.43;1718873;81;21058;-71
2020/12/28 07:28:42;;;;;;;2.47;2.27;;;;;;;-1.45;78.21;100884.27;1716190;81;21134;-69
2020/12/28 07:31:10;;;;;;;4.87;2.17;;;;;;;-1.42;78.08;100880.99;1715670;83;21156;-71
2020/12/28 07:33:45;;;;;;;3.73;2.27;;;;;;;-1.39;78.03;100885.31;1717917;83;21378;-70
2020/12/28 07:36:15;;;;;;;3.87;2.50;;;;;;;-1.36;77.93;100874.56;1713938;83;21119;-71
2020/12/28 07:38:44;;;;;;;4.07;1.70;;;;;;;-1.34;77.84;100871.36;1711772;83;21518;-70
2020/12/28 07:41:21;;;;;;;1.97;1.47;;;;;;;-1.26;77.70;100885.56;1710983;83;21150;-71
2020/12/28 07:43:58;;;;;;;3.67;2.13;;;;;;;-1.22;77.43;100876.06;1711034;83;21028;-70
2020/12/28 07:46:40;;;;;;;3.37;1.87;;;;;;;-1.19;77.17;100869.29;1710909;83;21955;-70
2020/12/28 07:49:21;;;;;;;3.90;1.97;;;;;;;-1.18;77.08;100869.66;1717511;83;21230;-70
2020/12/28 07:52:19;;;;;;;1.93;1.80;;;;;;;-1.15;76.67;100867.34;1710560;83;21185;-69
2020/12/28 07:55:21;;;;;;;1.97;1.70;;;;;;;-1.10;76.27;100859.13;1847772;76;25214;-69
2020/12/28 07:58:22;;;;;;;6.43;2.67;;;;;;;-1.15;76.10;100848.77;1827726;77;21547;-75
2020/12/28 08:00:51;;;;;;;4.40;2.97;;;;;;;-1.12;76.04;100852.57;1822019;76;21420;-75
2020/12/28 08:03:35;;;;;;;2.60;2.37;;;;;;;-1.09;75.89;100843.61;1782956;80;20987;-76
2020/12/28 08:06:07;;;;;;;8.70;4.40;;;;;;;-1.07;75.82;100841.73;1838100;77;21415;-73
2020/12/28 08:08:36;;;;;;;2.85;1.92;;;;;;;-1.02;75.87;100833.08;1852765;77;21036;-76
2020/12/28 08:11:05;;;;;;;2.50;1.80;;;;;;;-0.97;75.73;100827.92;1820716;78;21060;-74
2020/12/28 08:13:36;;;;;;;3.87;2.40;;;;;;;-0.92;75.51;100830.80;1841210;77;21821;-75
2020/12/28 08:16:13;;;;;;;3.00;2.27;;;;;;;-0.88;75.45;100825.27;1758210;81;21657;-76
2020/12/28 08:18:54;;;;;;;4.00;2.47;;;;;;;-0.78;75.38;100829.17;1877083;76;26475;-76
2020/12/28 08:21:22;;;;;;;2.17;2.00;;;;;;;-0.76;75.31;100830.42;1831957;77;21464;-75
2020/12/28 08:23:55;;;;;;;2.67;2.20;;;;;;;-0.68;75.40;100828.69;1826575;78;21192;-73
2020/12/28 08:26:26;;;;;;;3.58;2.52;;;;;;;-0.62;75.18;100821.27;1775653;80;21161;-70
2020/12/28 08:28:59;;;;;;;3.63;2.20;;;;;;;-0.57;74.82;100814.36;1762068;80;21799;-69
2020/12/28 08:34:16;;;;;;;4.00;2.00;;;;;;;-0.42;74.46;100798.09;1880012;75;26814;-69
2020/12/28 08:36:52;;;;;;;3.83;2.37;;;;;;;-0.42;74.13;100796.29;1728308;82;20953;-70
2020/12/28 08:39:25;;;;;;;5.40;2.73;;;;;;;-0.37;74.02;100796.50;1640667;85;21614;-70
2020/12/28 08:41:58;;;;;;;4.70;2.70;;;;;;;-0.34;73.93;100790.55;1704464;82;21058;-72
2020/12/28 08:44:33;;;;;;;6.20;1.73;;;;;;;-0.32;73.70;100778.06;1703474;83;21095;-72
2020/12/28 08:47:13;;;;;;;2.90;1.97;;;;;;;-0.27;73.38;100775.14;1865061;76;26962;-69
2020/12/28 08:49:42;;;;;;;4.28;2.72;;;;;;;-0.31;73.43;100764.30;1842482;77;21008;-70
2020/12/28 08:52:22;;;;;;;2.93;1.80;;;;;;;-0.28;73.48;100770.78;1836937;77;21203;-70
2020/12/28 08:55:05;;;;;;;5.50;2.67;;;;;;;-0.23;73.47;100774.02;1792404;79;21685;-71
2020/12/28 08:57:37;;;;;;;10.47;4.03;;;;;;;-0.16;73.51;100775.87;1767160;79;20958;-73
2020/12/28 09:00:06;;;;;;;4.17;2.33;;;;;;;-0.12;73.53;100773.45;1707655;80;20926;-74
2020/12/28 09:02:33;;;;;;;2.07;1.90;;;;;;;-0.05;73.70;100766.86;1754881;80;21047;-73
2020/12/28 09:05:01;;;;;;;4.53;2.33;;;;;;;0.05;73.72;100765.86;1718914;83;21211;-69
2020/12/28 09:07:29;;;;;;;1.57;1.47;;;;;;;0.12;73.61;100761.91;1730884;81;21535;-69
2020/12/28 09:09:57;;;;;;;4.80;2.00;;;;;;;0.15;73.46;100751.95;1730742;82;20967;-70
2020/12/28 09:12:25;;;;;;;4.73;1.93;;;;;;;0.16;73.31;100760.33;1725117;82;21263;-69
2020/12/28 09:14:54;;;;;;;1.50;1.40;;;;;;;0.19;73.36;100759.28;1747952;80;21006;-68
2020/12/28 09:17:23;;;;;;;1.57;1.47;;;;;;;0.21;73.41;100764.03;1761565;80;22226;-71
2020/12/28 09:19:53;;;;;;;4.47;2.20;;;;;;;0.22;73.36;100751.63;1770206;80;21210;-74
2020/12/28 09:22:21;;;;;;;1.20;1.20;;;;;;;0.23;73.25;100755.53;1756448;80;21071;-73
2020/12/28 09:24:50;;;;;;;2.27;1.47;;;;;;;0.22;73.29;100755.13;1775501;80;21024;-72
2020/12/28 09:27:19;;;;;;;2.17;1.70;;;;;;;0.23;73.37;100731.59;1767026;80;21021;-73
2020/12/28 09:29:47;;;;;;;5.00;2.90;;;;;;;0.26;73.46;100734.53;1709290;84;21077;-73
2020/12/28 09:32:17;;;;;;;4.63;2.77;;;;;;;0.27;73.49;100722.48;1739161;81;21081;-71
2020/12/28 09:34:44;;;;;;;2.60;2.20;;;;;;;0.33;73.65;100719.92;1725256;83;21363;-72
2020/12/28 09:37:12;;;;;;;6.30;3.90;;;;;;;0.36;73.68;100716.61;1720063;81;21062;-71
2020/12/28 09:39:41;;;;;;;5.83;2.00;;;;;;;0.41;73.76;100707.50;1779006;78;21037;-71
2020/12/28 09:42:09;;;;;;;7.00;2.40;;;;;;;0.42;73.73;100702.58;1786475;79;21659;-69
2020/12/28 09:44:36;;;;;;;9.40;3.10;;;;;;;0.44;73.79;100706.00;1788381;80;20985;-70
2020/12/28 09:47:04;;;;;;;4.00;2.73;;;;;;;0.48;73.93;100702.20;1793320;78;21049;-70
2020/12/28 09:49:32;;;;;;;7.43;2.83;;;;;;;0.51;73.96;100705.56;1794251;78;21021;-72
2020/12/28 09:52:01;;;;;;;5.90;2.60;;;;;;;0.52;73.98;100702.42;1792318;78;21014;-72
2020/12/28 10:15:19;;;;;;;4.20;1.90;;;;;;;0.60;74.54;100663.38;1790576;77;21039;-76
2020/12/28 10:18:11;;;;;;;3.27;2.53;;;;;;;0.61;74.62;100659.77;1792336;79;21027;-70
2020/12/28 10:20:44;;;;;;;5.80;2.60;;;;;;;0.60;74.59;100670.87;1715738;82;21243;-71
2020/12/28 10:23:11;;;;;;;5.08;3.15;;;;;;;0.63;74.70;100661.86;1718969;83;21221;-72
2020/12/28 10:25:39;;;;;;;5.27;2.53;;;;;;;0.65;74.66;100660.80;1685213;83;21255;-72
2020/12/28 10:28:07;;;;;;;7.80;3.13;;;;;;;0.66;74.63;100656.36;1715879;82;22180;-72
2020/12/28 10:30:35;;;;;;;6.17;2.80;;;;;;;0.63;74.58;100653.87;1700471;83;21251;-72
2020/12/28 10:33:03;;;;;;;3.60;2.67;;;;;;;0.64;74.70;100660.89;1698856;82;21187;-72
2020/12/28 10:35:31;;;;;;;3.00;2.03;;;;;;;0.63;74.74;100660.05;1739884;81;21096;-72
2020/12/28 10:37:59;;;;;;;4.37;2.70;;;;;;;0.65;74.79;100662.62;1755474;81;21640;-73
2020/12/28 10:40:27;;;;;;;2.30;1.80;;;;;;;0.62;74.84;100661.02;1754904;81;21857;-72
2020/12/28 10:42:56;;;;;;;3.93;2.10;;;;;;;0.62;74.87;100649.48;1736803;81;21261;-79
2020/12/28 10:45:25;;;;;;;2.20;2.00;;;;;;;0.60;74.91;100639.41;1741360;81;21685;-73
2020/12/28 10:47:53;;;;;;;2.23;2.07;;;;;;;0.59;75.06;100636.39;1750218;81;21041;-72
2020/12/28 10:50:21;;;;;;;3.47;1.43;;;;;;;0.61;75.29;100638.00;1756674;81;21204;-73
2020/12/28 10:52:49;;;;;;;3.27;1.80;;;;;;;0.62;75.33;100629.08;1757636;81;21793;-78
2020/12/28 10:55:17;;;;;;;1.67;1.47;;;;;;;0.62;75.41;100633.52;1758215;81;21008;-72
2020/12/28 10:57:45;;;;;;;1.57;1.47;;;;;;;0.64;75.56;100623.63;1767221;80;21188;-73
2020/12/28 11:00:13;;;;;;;2.83;1.70;;;;;;;0.68;75.54;100632.68;1782886;80;21602;-73
2020/12/28 11:02:41;;;;;;;3.17;2.47;;;;;;;0.70;75.56;100639.25;1779378;80;20978;-75
2020/12/28 11:05:09;;;;;;;4.97;2.10;;;;;;;0.70;75.55;100621.95;1810050;79;21565;-75
2020/12/28 11:07:37;;;;;;;3.70;1.67;;;;;;;0.71;75.58;100623.19;1799152;79;21070;-74
2020/12/28 11:10:05;;;;;;;3.20;2.43;;;;;;;0.73;75.65;100625.76;1754038;80;21219;-74
2020/12/28 11:12:36;;;;;;;4.97;2.83;;;;;;;0.75;75.71;100607.40;1771365;80;21179;-73
2020/12/28 11:15:04;;;;;;;2.43;2.13;;;;;;;0.77;75.73;100615.30;1768413;80;21555;-73
2020/12/28 11:17:36;;;;;;;5.33;2.10;;;;;;;0.77;75.60;100606.46;1775589;80;21190;-74
2020/12/28 11:20:15;;;;;;;3.47;2.03;;;;;;;0.75;75.61;100598.56;1756724;80;21219;-73
2020/12/28 11:22:44;;;;;;;4.00;1.73;;;;;;;0.74;75.71;100603.50;1800559;79;21041;-73
2020/12/28 11:25:12;;;;;;;2.13;1.67;;;;;;;0.74;75.79;100597.72;1783811;80;21570;-75
2020/12/28 11:27:40;;;;;;;4.03;2.00;;;;;;;0.74;75.87;100588.86;1778844;80;21058;-75
2020/12/28 11:30:08;;;;;;;3.30;2.40;;;;;;;0.73;75.90;100584.50;1812582;79;21773;-73
2020/12/28 11:32:36;;;;;;;3.63;2.33;;;;;;;0.70;75.95;100586.02;1812463;79;20943;-73
2020/12/28 11:35:05;;;;;;;2.20;1.77;;;;;;;0.68;76.05;100580.78;1812567;79;21558;-73
2020/12/28 11:37:33;;;;;;;3.07;2.37;;;;;;;0.66;76.13;100573.85;1812621;79;21411;-74
2020/12/28 11:40:01;;;;;;;3.17;1.57;;;;;;;0.64;76.23;100579.72;1812693;79;21080;-74
2020/12/28 11:42:31;;;;;;;3.90;2.57;;;;;;;0.65;76.31;100585.44;1812707;79;21266;-73
2020/12/28 11:44:59;;;;;;;4.10;2.10;;;;;;;0.63;76.34;100590.00;1812600;79;20930;-75
2020/12/28 11:47:27;;;;;;;5.20;1.97;;;;;;;0.62;76.37;100580.30;1812720;79;20994;-76
2020/12/28 11:49:54;;;;;;;3.63;1.90;;;;;;;0.60;76.50;100574.21;1790458;79;21578;-74
2020/12/28 11:52:23;;;;;;;4.60;2.60;;;;;;;0.60;76.66;100568.41;1812621;79;20940;-73
2020/12/28 11:54:53;;;;;;;1.67;1.40;;;;;;;0.61;76.80;100566.14;1812620;79;21001;-74
2020/12/28 11:57:21;;;;;;;4.77;2.73;;;;;;;0.61;76.86;100572.79;1812353;79;21014;-73
2020/12/28 11:59:49;;;;;;;3.17;2.10;;;;;;;0.63;77.01;100567.38;1797912;79;21009;-74
2020/12/28 12:02:21;;;;;;;2.53;1.50;;;;;;;0.64;77.14;100561.09;1787428;80;21137;-72
2020/12/28 12:04:51;;;;;;;1.43;1.33;;;;;;;0.64;77.18;100561.97;1789400;79;21033;-72
2020/12/28 12:07:21;;;;;;;2.63;1.53;;;;;;;0.62;77.14;100563.88;1807049;79;21431;-72
2020/12/28 12:09:50;;;;;;;3.40;1.97;;;;;;;0.60;77.16;100564.89;1813642;78;21655;-73
2020/12/28 12:12:18;;;;;;;3.27;1.97;;;;;;;0.56;77.09;100566.89;1824379;78;21006;-75